Tappen, North Dakota
Current Conditions -  °F | °C
As of 7:56 AM on Monday 26 Jan 2015 (Local Time) from KJMS Reporting Station
Clear Clear  
Wind Chill: 27°   Ceiling: Unl
Heat Index: 36°   Visibility: 10mi
Dew Point: 30°   Wind: 15mph
Humidity: 79%   Direction: 300°WNW
Pressure: 29.76"   Gusts: NA
Location:  46.87°N, 99.64°W
Report Text: KJMS 261356Z AUTO 30013KT 10SM CLR 02/M01 A2976 RMK AO2 SLP096 T00221011
Loading
Personal Weather Stations






























Interactive Weather Map New forecast layout! Learn more

10-Day Weather Forecast

Advertisements
Track Severe Weather on mobile